createdAt,value
2019-01-02T00:00:52.564Z,1024.65
2019-01-02T00:01:52.559Z,1024.60
2019-01-02T00:02:52.569Z,1024.63
2019-01-02T00:03:52.576Z,1024.56
2019-01-02T00:04:52.509Z,1024.67
2019-01-02T00:05:52.510Z,1024.66
2019-01-02T00:06:52.486Z,1024.72
2019-01-02T00:07:52.485Z,1024.64
2019-01-02T00:08:52.470Z,1024.70
2019-01-02T00:09:52.453Z,1024.79
2019-01-02T00:10:52.624Z,1024.73
2019-01-02T00:11:52.432Z,1024.72
2019-01-02T00:12:52.418Z,1024.66
2019-01-02T00:13:52.425Z,1024.69
2019-01-02T00:14:52.398Z,1024.68
2019-01-02T00:15:52.439Z,1024.67
2019-01-02T00:16:52.387Z,1024.70
2019-01-02T00:17:52.397Z,1024.75
2019-01-02T00:18:52.354Z,1024.77
2019-01-02T00:19:52.340Z,1024.81
2019-01-02T00:20:52.490Z,1024.77
2019-01-02T00:21:52.318Z,1024.83
2019-01-02T00:22:52.312Z,1024.79
2019-01-02T00:23:52.303Z,1024.79
2019-01-02T00:24:52.288Z,1024.79
2019-01-02T00:25:52.908Z,1024.78
2019-01-02T00:26:52.263Z,1024.78
2019-01-02T00:27:52.250Z,1024.78
2019-01-02T00:28:52.265Z,1024.80
2019-01-02T00:29:52.233Z,1024.79
2019-01-02T00:30:52.229Z,1024.82
2019-01-02T00:31:52.225Z,1024.85
2019-01-02T00:32:52.203Z,1024.84
2019-01-02T00:33:52.192Z,1024.84
2019-01-02T00:34:52.177Z,1024.89
2019-01-02T00:35:52.173Z,1024.79
2019-01-02T00:36:52.159Z,1024.78
2019-01-02T00:37:52.144Z,1024.77
2019-01-02T00:38:52.132Z,1024.81
2019-01-02T00:39:52.120Z,1024.73
2019-01-02T00:40:52.125Z,1024.75
2019-01-02T00:41:52.100Z,1024.76
2019-01-02T00:42:52.116Z,1024.73
2019-01-02T00:43:52.077Z,1024.75
2019-01-02T00:44:52.105Z,1024.77
2019-01-02T00:45:52.063Z,1024.75
2019-01-02T00:46:52.043Z,1024.75
2019-01-02T00:47:52.074Z,1024.80
2019-01-02T00:48:52.025Z,1024.74
2019-01-02T00:49:52.009Z,1024.72
2019-01-02T00:50:52.022Z,1024.73
2019-01-02T00:51:52.025Z,1024.75
2019-01-02T00:52:51.995Z,1024.78
2019-01-02T00:53:51.983Z,1024.80
2019-01-02T00:54:52.229Z,1024.86
2019-01-02T00:55:51.946Z,1024.83
2019-01-02T00:56:51.930Z,1024.80
2019-01-02T00:57:51.918Z,1024.82
2019-01-02T00:58:51.935Z,1024.81
2019-01-02T00:59:51.930Z,1024.84
2019-01-02T01:00:51.898Z,1024.83
2019-01-02T01:01:51.891Z,1024.84
2019-01-02T01:02:52.016Z,1024.84
2019-01-02T01:03:51.851Z,1024.84
2019-01-02T01:04:51.842Z,1024.84
2019-01-02T01:05:51.883Z,1024.86
2019-01-02T01:06:51.913Z,1024.86
2019-01-02T01:07:51.812Z,1024.84
2019-01-02T01:08:51.799Z,1024.93
2019-01-02T01:09:51.795Z,1024.94
2019-01-02T01:10:51.787Z,1024.97
2019-01-02T01:11:51.852Z,1024.98
2019-01-02T01:12:51.760Z,1024.98
2019-01-02T01:13:51.749Z,1024.96
2019-01-02T01:14:51.772Z,1024.93
2019-01-02T01:15:51.739Z,1024.95
2019-01-02T01:16:51.725Z,1024.99
2019-01-02T01:17:51.711Z,1024.95
2019-01-02T01:18:51.708Z,1024.98
2019-01-02T01:19:51.689Z,1024.95
2019-01-02T01:20:51.768Z,1024.97
2019-01-02T01:21:51.657Z,1025.03
2019-01-02T01:22:51.642Z,1024.95
2019-01-02T01:23:51.652Z,1024.96
2019-01-02T01:24:51.617Z,1025.04
2019-01-02T01:25:51.618Z,1025.11
2019-01-02T01:26:51.614Z,1025.13
2019-01-02T01:27:51.593Z,1025.07
2019-01-02T01:28:51.581Z,1025.12
2019-01-02T01:29:51.563Z,1025.11
2019-01-02T01:30:51.570Z,1025.16
2019-01-02T01:31:51.540Z,1025.22
2019-01-02T01:32:51.552Z,1025.25
2019-01-02T01:33:51.734Z,1025.20
2019-01-02T01:34:51.511Z,1025.22
2019-01-02T01:35:51.517Z,1025.21
2019-01-02T01:36:51.499Z,1025.20
2019-01-02T01:37:51.508Z,1025.22
2019-01-02T01:38:51.461Z,1025.17
2019-01-02T01:39:51.452Z,1025.28
2019-01-02T01:40:51.600Z,1025.26
2019-01-02T01:41:51.433Z,1025.27
2019-01-02T01:42:51.423Z,1025.28
2019-01-02T01:43:51.441Z,1025.23
2019-01-02T01:44:51.402Z,1025.27
2019-01-02T01:45:51.409Z,1025.23
2019-01-02T01:46:51.374Z,1025.23
2019-01-02T01:47:51.515Z,1025.26
2019-01-02T01:48:51.355Z,1025.29
2019-01-02T01:49:51.346Z,1025.27
2019-01-02T01:50:51.348Z,1025.28
2019-01-02T01:51:51.317Z,1025.30
2019-01-02T01:52:51.312Z,1025.27
2019-01-02T01:53:51.306Z,1025.26
2019-01-02T01:54:51.283Z,1025.28
2019-01-02T01:55:51.378Z,1025.30
2019-01-02T01:56:51.263Z,1025.20
2019-01-02T01:57:51.304Z,1025.30
2019-01-02T01:58:51.239Z,1025.31
2019-01-02T01:59:51.237Z,1025.33
2019-01-02T02:00:51.232Z,1025.37
2019-01-02T02:01:51.209Z,1025.41
2019-01-02T02:02:51.199Z,1025.38
2019-01-02T02:03:51.185Z,1025.40
2019-01-02T02:04:51.191Z,1025.37
2019-01-02T02:05:51.224Z,1025.42
2019-01-02T02:06:51.223Z,1025.30
2019-01-02T02:07:51.162Z,1025.39
2019-01-02T02:08:51.128Z,1025.46
2019-01-02T02:09:51.249Z,1025.41
2019-01-02T02:10:51.116Z,1025.49
2019-01-02T02:11:51.205Z,1025.50
2019-01-02T02:12:51.084Z,1025.53
2019-01-02T02:13:51.072Z,1025.48
2019-01-02T02:14:51.093Z,1025.44
2019-01-02T02:15:51.061Z,1025.37
2019-01-02T02:16:51.044Z,1025.46
2019-01-02T02:17:51.150Z,1025.48
2019-01-02T02:18:51.041Z,1025.35
2019-01-02T02:19:51.007Z,1025.36
2019-01-02T02:20:51.099Z,1025.36
2019-01-02T02:21:50.991Z,1025.37
2019-01-02T02:22:50.974Z,1025.54
2019-01-02T02:23:50.992Z,1025.51
2019-01-02T02:24:50.951Z,1025.57
2019-01-02T02:25:50.953Z,1025.54
2019-01-02T02:26:50.982Z,1025.48
2019-01-02T02:27:51.099Z,1025.49
2019-01-02T02:28:50.906Z,1025.47
2019-01-02T02:29:50.899Z,1025.51
2019-01-02T02:30:51.002Z,1025.50
2019-01-02T02:31:50.873Z,1025.48
2019-01-02T02:32:50.863Z,1025.53
2019-01-02T02:33:50.878Z,1025.57
2019-01-02T02:34:50.839Z,1025.56
2019-01-02T02:35:50.839Z,1025.62
2019-01-02T02:36:50.817Z,1025.57
2019-01-02T02:37:50.902Z,1025.59
2019-01-02T02:38:50.836Z,1025.58
2019-01-02T02:39:50.787Z,1025.60
2019-01-02T02:40:50.818Z,1025.53
2019-01-02T02:41:50.763Z,1025.54
2019-01-02T02:42:50.758Z,1025.49
2019-01-02T02:43:50.740Z,1025.53
2019-01-02T02:44:50.728Z,1025.56
2019-01-02T02:45:50.752Z,1025.57
2019-01-02T02:46:50.741Z,1025.58
2019-01-02T02:47:50.856Z,1025.60
2019-01-02T02:48:50.688Z,1025.64
2019-01-02T02:49:50.678Z,1025.57
2019-01-02T02:50:50.725Z,1025.59
2019-01-02T02:51:50.666Z,1025.55
2019-01-02T02:52:50.651Z,1025.69
2019-01-02T02:53:50.646Z,1025.59
2019-01-02T02:54:50.653Z,1025.61
2019-01-02T02:55:50.645Z,1025.66
2019-01-02T02:56:50.614Z,1025.62
2019-01-02T02:57:50.602Z,1025.60
2019-01-02T02:58:50.598Z,1025.59
2019-01-02T02:59:50.643Z,1025.62
2019-01-02T03:00:50.570Z,1025.59
2019-01-02T03:01:50.562Z,1025.61
2019-01-02T03:02:50.544Z,1025.62
2019-01-02T03:03:50.525Z,1025.65
2019-01-02T03:04:50.509Z,1025.66
2019-01-02T03:05:50.544Z,1025.61
2019-01-02T03:06:52.621Z,1025.68
2019-01-02T03:07:50.475Z,1025.58
2019-01-02T03:08:50.464Z,1025.56
2019-01-02T03:09:50.454Z,1025.55
2019-01-02T03:10:50.479Z,1025.59
2019-01-02T03:11:50.438Z,1025.57
2019-01-02T03:12:50.418Z,1025.52
2019-01-02T03:13:50.409Z,1025.58
2019-01-02T03:14:50.398Z,1025.57
2019-01-02T03:15:50.399Z,1025.57
2019-01-02T03:16:50.409Z,1025.54
2019-01-02T03:17:50.373Z,1025.50
2019-01-02T03:18:50.350Z,1025.45
2019-01-02T03:19:50.341Z,1025.46
2019-01-02T03:20:50.356Z,1025.46
2019-01-02T03:21:50.320Z,1025.43
2019-01-02T03:22:50.316Z,1025.52
2019-01-02T03:23:50.309Z,1025.49
2019-01-02T03:24:50.285Z,1025.42
2019-01-02T03:25:50.294Z,1025.46
2019-01-02T03:26:50.273Z,1025.46
2019-01-02T03:27:50.258Z,1025.51
2019-01-02T03:28:50.249Z,1025.52
2019-01-02T03:29:50.237Z,1025.49
2019-01-02T03:30:50.225Z,1025.53
2019-01-02T03:31:50.219Z,1025.56
2019-01-02T03:32:50.207Z,1025.56
2019-01-02T03:33:50.188Z,1025.60
2019-01-02T03:34:50.178Z,1025.66
2019-01-02T03:35:50.161Z,1025.60
2019-01-02T03:36:50.163Z,1025.57
2019-01-02T03:37:50.150Z,1025.55
2019-01-02T03:38:50.135Z,1025.52
2019-01-02T03:39:50.155Z,1025.56
2019-01-02T03:40:50.118Z,1025.50
2019-01-02T03:41:50.105Z,1025.52
2019-01-02T03:42:50.087Z,1025.49
2019-01-02T03:43:50.082Z,1025.55
2019-01-02T03:44:50.065Z,1025.55
2019-01-02T03:45:50.084Z,1025.50
2019-01-02T03:46:50.065Z,1025.45
2019-01-02T03:47:50.062Z,1025.43
2019-01-02T03:48:50.021Z,1025.46
2019-01-02T03:49:50.009Z,1025.42
2019-01-02T03:50:50.004Z,1025.46
2019-01-02T03:51:49.995Z,1025.40
2019-01-02T03:52:49.981Z,1025.44
2019-01-02T03:53:49.968Z,1025.39
2019-01-02T03:54:49.975Z,1025.47
2019-01-02T03:55:49.961Z,1025.43
2019-01-02T03:56:49.939Z,1025.52
2019-01-02T03:57:49.938Z,1025.52
2019-01-02T03:58:49.910Z,1025.47
2019-01-02T03:59:49.900Z,1025.46
2019-01-02T04:00:49.899Z,1025.48
2019-01-02T04:01:49.911Z,1025.45
2019-01-02T04:02:50.043Z,1025.46
2019-01-02T04:03:49.863Z,1025.49
2019-01-02T04:04:49.844Z,1025.48
2019-01-02T04:05:49.830Z,1025.44
2019-01-02T04:06:49.832Z,1025.45
2019-01-02T04:07:49.822Z,1025.43
2019-01-02T04:08:49.822Z,1025.39
2019-01-02T04:09:49.794Z,1025.31
2019-01-02T04:10:49.777Z,1025.44
2019-01-02T04:11:49.881Z,1025.47
2019-01-02T04:12:49.758Z,1025.51
2019-01-02T04:13:49.754Z,1025.49
2019-01-02T04:14:49.741Z,1025.55
2019-01-02T04:15:49.739Z,1025.61
2019-01-02T04:16:49.732Z,1025.64
2019-01-02T04:17:49.724Z,1025.65
2019-01-02T04:18:49.692Z,1025.68
2019-01-02T04:19:49.687Z,1025.64
2019-01-02T04:20:49.675Z,1025.57
2019-01-02T04:21:49.677Z,1025.50
2019-01-02T04:22:49.644Z,1025.58
2019-01-02T04:23:49.632Z,1025.52
2019-01-02T04:24:49.623Z,1025.48
2019-01-02T04:25:49.612Z,1025.57
2019-01-02T04:26:49.615Z,1025.51
2019-01-02T04:27:49.601Z,1025.46
2019-01-02T04:28:49.606Z,1025.47
2019-01-02T04:29:49.568Z,1025.57
2019-01-02T04:30:49.560Z,1025.53
2019-01-02T04:31:49.557Z,1025.50
2019-01-02T04:32:49.538Z,1025.49
2019-01-02T04:33:49.529Z,1025.54
2019-01-02T04:34:49.543Z,1025.52
2019-01-02T04:35:49.501Z,1025.54
2019-01-02T04:36:49.499Z,1025.59
2019-01-02T04:37:49.477Z,1025.59
2019-01-02T04:38:49.469Z,1025.55
2019-01-02T04:39:49.455Z,1025.64
2019-01-02T04:40:49.472Z,1025.57
2019-01-02T04:41:49.491Z,1025.64
2019-01-02T04:42:49.425Z,1025.60
2019-01-02T04:43:49.421Z,1025.67
2019-01-02T04:44:49.404Z,1025.65
2019-01-02T04:45:49.392Z,1025.71
2019-01-02T04:46:49.388Z,1025.72
2019-01-02T04:47:49.382Z,1025.67
2019-01-02T04:48:49.377Z,1025.68
2019-01-02T04:49:49.355Z,1025.68
2019-01-02T04:50:49.332Z,1025.69
2019-01-02T04:51:49.330Z,1025.71
2019-01-02T04:52:49.317Z,1025.63
2019-01-02T04:53:49.299Z,1025.64
2019-01-02T04:54:49.288Z,1025.70
2019-01-02T04:55:49.286Z,1025.72
2019-01-02T04:56:49.400Z,1025.70
2019-01-02T04:57:49.350Z,1025.75
2019-01-02T04:58:49.262Z,1025.76
2019-01-02T04:59:49.236Z,1025.87
2019-01-02T05:00:49.241Z,1025.78
2019-01-02T05:01:49.434Z,1025.82
2019-01-02T05:02:49.201Z,1025.75
2019-01-02T05:03:49.189Z,1025.83
2019-01-02T05:04:49.192Z,1025.79
2019-01-02T05:05:49.199Z,1025.77
2019-01-02T05:06:49.215Z,1025.81
2019-01-02T05:07:49.170Z,1025.72
2019-01-02T05:08:49.136Z,1025.72
2019-01-02T05:09:49.476Z,1025.73
2019-01-02T05:10:49.112Z,1025.69
2019-01-02T05:11:49.111Z,1025.72
2019-01-02T05:12:49.137Z,1025.75
2019-01-02T05:13:49.078Z,1025.77
2019-01-02T05:14:49.066Z,1025.85
2019-01-02T05:15:49.068Z,1025.84
2019-01-02T05:16:49.070Z,1025.87
2019-01-02T05:17:49.039Z,1025.91
2019-01-02T05:18:49.025Z,1025.91
2019-01-02T05:19:49.014Z,1025.93
2019-01-02T05:20:49.001Z,1025.96
2019-01-02T05:21:49.021Z,1025.98
2019-01-02T05:22:48.977Z,1025.95
2019-01-02T05:23:48.966Z,1025.94
2019-01-02T05:24:48.959Z,1025.98
2019-01-02T05:25:48.947Z,1026.04
2019-01-02T05:26:48.948Z,1026.08
2019-01-02T05:27:48.944Z,1026.03
2019-01-02T05:28:48.967Z,1026.00
2019-01-02T05:29:48.923Z,1026.06
2019-01-02T05:30:48.891Z,1026.01
2019-01-02T05:31:48.915Z,1026.01
2019-01-02T05:32:48.870Z,1026.00
2019-01-02T05:33:48.856Z,1026.01
2019-01-02T05:34:48.854Z,1026.01
2019-01-02T05:35:48.861Z,1026.00
2019-01-02T05:36:48.864Z,1026.05
2019-01-02T05:37:48.827Z,1026.07
2019-01-02T05:38:48.802Z,1026.03
2019-01-02T05:39:48.793Z,1026.05
2019-01-02T05:40:48.785Z,1026.07
2019-01-02T05:41:48.783Z,1026.10
2019-01-02T05:42:48.776Z,1026.09
2019-01-02T05:43:48.747Z,1026.15
2019-01-02T05:44:48.735Z,1026.16
2019-01-02T05:45:48.723Z,1026.18
2019-01-02T05:46:48.721Z,1026.19
2019-01-02T05:47:48.702Z,1026.17
2019-01-02T05:48:48.707Z,1026.17
2019-01-02T05:49:48.676Z,1026.15
2019-01-02T05:50:48.668Z,1026.19
2019-01-02T05:51:48.663Z,1026.17
2019-01-02T05:52:48.644Z,1026.17
2019-01-02T05:53:48.632Z,1026.15
2019-01-02T05:54:48.675Z,1026.20
2019-01-02T05:55:48.612Z,1026.20
2019-01-02T05:56:48.612Z,1026.20
2019-01-02T05:57:48.590Z,1026.18
2019-01-02T05:58:48.822Z,1026.19
2019-01-02T05:59:48.588Z,1026.13
2019-01-02T06:00:48.557Z,1026.16
2019-01-02T06:01:48.579Z,1026.12
2019-01-02T06:02:48.537Z,1026.19
2019-01-02T06:03:48.529Z,1026.22
2019-01-02T06:04:48.535Z,1026.18
2019-01-02T06:05:48.515Z,1026.18
2019-01-02T06:06:48.501Z,1026.19
2019-01-02T06:07:48.477Z,1026.25
2019-01-02T06:08:48.466Z,1026.22
2019-01-02T06:09:48.486Z,1026.24
2019-01-02T06:10:48.450Z,1026.28
2019-01-02T06:11:48.469Z,1026.29
2019-01-02T06:12:48.420Z,1026.28
2019-01-02T06:13:48.412Z,1026.33
2019-01-02T06:14:48.401Z,1026.28
2019-01-02T06:15:48.407Z,1026.27
2019-01-02T06:16:48.409Z,1026.28
2019-01-02T06:17:48.373Z,1026.26
2019-01-02T06:18:48.356Z,1026.25
2019-01-02T06:19:48.343Z,1026.34
2019-01-02T06:20:48.332Z,1026.32
2019-01-02T06:21:48.330Z,1026.33
2019-01-02T06:22:48.341Z,1026.41
2019-01-02T06:23:48.299Z,1026.38
2019-01-02T06:24:48.287Z,1026.41
2019-01-02T06:25:48.283Z,1026.43
2019-01-02T06:26:48.367Z,1026.32
2019-01-02T06:27:48.261Z,1026.38
2019-01-02T06:28:48.257Z,1026.44
2019-01-02T06:29:48.248Z,1026.39
2019-01-02T06:30:48.226Z,1026.41
2019-01-02T06:31:48.374Z,1026.41
2019-01-02T06:32:48.202Z,1026.43
2019-01-02T06:33:48.191Z,1026.39
2019-01-02T06:34:48.180Z,1026.35
2019-01-02T06:35:48.316Z,1026.39
2019-01-02T06:36:48.177Z,1026.39
2019-01-02T06:37:48.144Z,1026.44
2019-01-02T06:38:48.148Z,1026.44
2019-01-02T06:39:48.165Z,1026.45
2019-01-02T06:40:48.124Z,1026.41
2019-01-02T06:41:48.122Z,1026.36
2019-01-02T06:42:48.108Z,1026.44
2019-01-02T06:43:48.086Z,1026.41
2019-01-02T06:44:48.069Z,1026.47
2019-01-02T06:45:48.057Z,1026.47
2019-01-02T06:46:48.070Z,1026.40
2019-01-02T06:47:48.039Z,1026.40
2019-01-02T06:48:48.051Z,1026.48
2019-01-02T06:49:48.012Z,1026.45
2019-01-02T06:50:48.002Z,1026.46
2019-01-02T06:51:47.999Z,1026.47
2019-01-02T06:52:47.992Z,1026.49
2019-01-02T06:53:47.967Z,1026.49
2019-01-02T06:54:48.014Z,1026.52
2019-01-02T06:55:47.952Z,1026.55
2019-01-02T06:56:47.934Z,1026.56
2019-01-02T06:57:47.943Z,1026.57
2019-01-02T06:58:47.919Z,1026.62
2019-01-02T06:59:47.906Z,1026.60
2019-01-02T07:00:47.922Z,1026.58
2019-01-02T07:01:47.950Z,1026.60
2019-01-02T07:02:47.875Z,1026.60
2019-01-02T07:03:47.861Z,1026.59
2019-01-02T07:04:47.846Z,1026.65
2019-01-02T07:05:47.838Z,1026.67
2019-01-02T07:06:47.835Z,1026.69
2019-01-02T07:07:47.863Z,1026.77
2019-01-02T07:08:47.802Z,1026.80
2019-01-02T07:09:47.791Z,1026.81
2019-01-02T07:10:47.850Z,1026.87
2019-01-02T07:11:47.768Z,1026.87
2019-01-02T07:12:47.762Z,1026.90
2019-01-02T07:13:48.537Z,1026.85
2019-01-02T07:14:47.739Z,1026.83
2019-01-02T07:15:47.726Z,1026.86
2019-01-02T07:16:47.743Z,1026.82
2019-01-02T07:17:47.712Z,1026.83
2019-01-02T07:18:47.711Z,1026.86
2019-01-02T07:19:47.683Z,1026.86
2019-01-02T07:20:47.688Z,1026.85
2019-01-02T07:21:47.672Z,1026.88
2019-01-02T07:22:47.651Z,1026.91
2019-01-02T07:23:47.652Z,1026.93
2019-01-02T07:24:47.639Z,1026.95
2019-01-02T07:25:47.621Z,1026.93
2019-01-02T07:26:48.350Z,1026.86
2019-01-02T07:27:47.589Z,1026.91
2019-01-02T07:28:47.648Z,1026.99
2019-01-02T07:29:47.585Z,1026.95
2019-01-02T07:30:47.558Z,1027.03
2019-01-02T07:31:47.546Z,1027.05
2019-01-02T07:32:47.545Z,1027.08
2019-01-02T07:33:47.540Z,1027.08
2019-01-02T07:34:47.534Z,1027.06
2019-01-02T07:35:47.505Z,1027.02
2019-01-02T07:36:47.491Z,1027.07
2019-01-02T07:37:47.506Z,1027.10
2019-01-02T07:38:47.466Z,1027.11
2019-01-02T07:39:47.482Z,1027.10
2019-01-02T07:40:47.454Z,1027.10
2019-01-02T07:41:47.436Z,1027.12
2019-01-02T07:42:47.468Z,1027.18
2019-01-02T07:43:47.436Z,1027.17
2019-01-02T07:44:47.407Z,1027.19
2019-01-02T07:45:47.390Z,1027.22
2019-01-02T07:46:47.424Z,1027.14
2019-01-02T07:47:47.371Z,1027.24
2019-01-02T07:48:47.378Z,1027.18
2019-01-02T07:49:47.357Z,1027.15
2019-01-02T07:50:47.347Z,1027.17
2019-01-02T07:51:47.331Z,1027.20
2019-01-02T07:52:47.325Z,1027.31
2019-01-02T07:53:47.318Z,1027.35
2019-01-02T07:54:47.303Z,1027.36
2019-01-02T07:55:47.286Z,1027.33
2019-01-02T07:56:47.271Z,1027.32
2019-01-02T07:57:47.262Z,1027.37
2019-01-02T07:58:47.258Z,1027.37
2019-01-02T07:59:47.258Z,1027.42
2019-01-02T08:00:47.235Z,1027.43
2019-01-02T08:01:47.220Z,1027.46
2019-01-02T08:02:47.204Z,1027.44
2019-01-02T08:03:47.205Z,1027.38
2019-01-02T08:04:47.288Z,1027.35
2019-01-02T08:05:47.166Z,1027.32
2019-01-02T08:06:47.166Z,1027.38
2019-01-02T08:07:47.159Z,1027.42
2019-01-02T08:08:47.146Z,1027.45
2019-01-02T08:09:47.135Z,1027.45
2019-01-02T08:10:47.130Z,1027.39
2019-01-02T08:11:47.184Z,1027.43
2019-01-02T08:12:47.096Z,1027.47
2019-01-02T08:13:47.086Z,1027.46
2019-01-02T08:14:47.076Z,1027.50
2019-01-02T08:15:47.075Z,1027.46
2019-01-02T08:16:47.052Z,1027.41
2019-01-02T08:17:47.034Z,1027.38
2019-01-02T08:18:47.048Z,1027.39
2019-01-02T08:19:47.022Z,1027.46
2019-01-02T08:20:47.009Z,1027.44
2019-01-02T08:21:47.025Z,1027.47
2019-01-02T08:22:46.993Z,1027.50
2019-01-02T08:23:46.967Z,1027.57
2019-01-02T08:24:46.965Z,1027.57
2019-01-02T08:25:46.948Z,1027.51
2019-01-02T08:26:46.942Z,1027.54
2019-01-02T08:27:46.936Z,1027.53
2019-01-02T08:28:46.939Z,1027.54
2019-01-02T08:29:46.910Z,1027.58
2019-01-02T08:30:46.937Z,1027.56
2019-01-02T08:31:46.879Z,1027.52
2019-01-02T08:32:46.872Z,1027.54
2019-01-02T08:33:46.857Z,1027.56
2019-01-02T08:34:46.968Z,1027.55
2019-01-02T08:35:46.837Z,1027.52
2019-01-02T08:36:46.909Z,1027.52
2019-01-02T08:37:46.814Z,1027.49
2019-01-02T08:38:46.877Z,1027.51
2019-01-02T08:39:46.833Z,1027.54
2019-01-02T08:40:46.794Z,1027.52
2019-01-02T08:41:46.769Z,1027.50
2019-01-02T08:42:46.773Z,1027.51
2019-01-02T08:43:46.747Z,1027.52
2019-01-02T08:44:46.751Z,1027.52
2019-01-02T08:45:46.734Z,1027.58
2019-01-02T08:46:46.714Z,1027.57
2019-01-02T08:47:46.700Z,1027.61
2019-01-02T08:48:46.693Z,1027.58
2019-01-02T08:49:46.704Z,1027.59
2019-01-02T08:50:46.710Z,1027.57
2019-01-02T08:51:46.667Z,1027.65
2019-01-02T08:52:46.668Z,1027.68
2019-01-02T08:53:46.645Z,1027.60
2019-01-02T08:54:46.635Z,1027.62
2019-01-02T08:55:46.624Z,1027.58
2019-01-02T08:56:46.624Z,1027.62
2019-01-02T08:57:46.625Z,1027.65
2019-01-02T08:58:46.582Z,1027.60
2019-01-02T08:59:46.583Z,1027.64
2019-01-02T09:00:47.251Z,1027.61
2019-01-02T09:01:46.551Z,1027.70
2019-01-02T09:02:46.539Z,1027.69
2019-01-02T09:03:46.539Z,1027.72
2019-01-02T09:04:46.547Z,1027.77
2019-01-02T09:05:46.523Z,1027.71
2019-01-02T09:06:46.491Z,1027.80
2019-01-02T09:07:46.480Z,1027.75
2019-01-02T09:08:46.526Z,1027.79
2019-01-02T09:09:46.473Z,1027.80
2019-01-02T09:10:46.485Z,1027.86
2019-01-02T09:11:46.444Z,1027.86
2019-01-02T09:12:46.445Z,1027.90
2019-01-02T09:13:46.412Z,1027.91
2019-01-02T09:14:46.427Z,1027.93
2019-01-02T09:15:46.399Z,1027.90
2019-01-02T09:16:46.425Z,1027.94
2019-01-02T09:17:46.432Z,1027.89
2019-01-02T09:18:46.427Z,1027.95
2019-01-02T09:19:46.395Z,1027.96
2019-01-02T09:20:46.360Z,1027.95
2019-01-02T09:21:46.325Z,1027.91
2019-01-02T09:22:46.319Z,1027.94
2019-01-02T09:23:46.304Z,1027.85
2019-01-02T09:24:46.288Z,1027.89
2019-01-02T09:25:46.324Z,1027.94
2019-01-02T09:26:46.306Z,1027.97
2019-01-02T09:27:46.281Z,1027.99
2019-01-02T09:28:46.251Z,1028.08
2019-01-02T09:29:46.251Z,1028.06
2019-01-02T09:30:46.267Z,1028.13
2019-01-02T09:31:46.228Z,1028.11
2019-01-02T09:32:46.344Z,1028.15
2019-01-02T09:33:52.025Z,1028.17
2019-01-02T09:34:47.200Z,1028.16
2019-01-02T09:35:46.207Z,1028.19
2019-01-02T09:36:46.171Z,1028.17
2019-01-02T09:37:46.246Z,1028.15
2019-01-02T09:38:46.161Z,1028.17
2019-01-02T09:39:46.125Z,1028.29
2019-01-02T09:40:46.182Z,1028.22
2019-01-02T09:41:46.134Z,1028.17
2019-01-02T09:42:46.103Z,1028.17
2019-01-02T09:43:46.085Z,1028.17
2019-01-02T09:44:46.072Z,1028.16
2019-01-02T09:45:46.097Z,1028.07
2019-01-02T09:46:46.070Z,1028.12
2019-01-02T09:47:46.041Z,1028.17
2019-01-02T09:48:46.025Z,1028.13
2019-01-02T09:49:46.019Z,1028.13
2019-01-02T09:50:46.024Z,1028.08
2019-01-02T09:51:46.002Z,1028.13
2019-01-02T09:52:46.038Z,1028.16
2019-01-02T09:53:46.055Z,1028.13
2019-01-02T09:54:45.967Z,1028.16
2019-01-02T09:55:45.961Z,1028.14
2019-01-02T09:56:45.949Z,1028.16
2019-01-02T09:57:46.022Z,1028.17
2019-01-02T09:58:45.929Z,1028.23
2019-01-02T09:59:45.929Z,1028.24
2019-01-02T10:00:45.921Z,1028.27
2019-01-02T10:01:45.887Z,1028.26
2019-01-02T10:02:45.882Z,1028.24
2019-01-02T10:03:45.901Z,1028.29
2019-01-02T10:04:45.851Z,1028.23
2019-01-02T10:05:45.868Z,1028.25
2019-01-02T10:06:45.826Z,1028.21
2019-01-02T10:07:45.900Z,1028.26
2019-01-02T10:08:45.808Z,1028.22
2019-01-02T10:09:45.816Z,1028.26
2019-01-02T10:10:45.778Z,1028.20
2019-01-02T10:11:45.781Z,1028.24
2019-01-02T10:12:45.764Z,1028.21
2019-01-02T10:13:45.781Z,1028.20
2019-01-02T10:14:45.756Z,1028.22
2019-01-02T10:15:45.732Z,1028.23
2019-01-02T10:16:45.773Z,1028.24
2019-01-02T10:17:45.701Z,1028.25
2019-01-02T10:18:45.691Z,1028.27
2019-01-02T10:19:45.681Z,1028.21
2019-01-02T10:20:45.672Z,1028.28
2019-01-02T10:21:45.694Z,1028.23
2019-01-02T10:22:45.673Z,1028.24
2019-01-02T10:23:45.668Z,1028.25
2019-01-02T10:24:45.638Z,1028.20
2019-01-02T10:25:45.619Z,1028.17
2019-01-02T10:26:45.642Z,1028.28
2019-01-02T10:27:45.589Z,1028.19
2019-01-02T10:28:45.582Z,1028.14
2019-01-02T10:29:45.575Z,1028.19
2019-01-02T10:30:45.554Z,1028.17
2019-01-02T10:31:45.553Z,1028.16
2019-01-02T10:32:45.596Z,1028.12
2019-01-02T10:33:45.535Z,1028.15
2019-01-02T10:34:45.514Z,1028.12
2019-01-02T10:35:45.504Z,1028.06
2019-01-02T10:36:45.500Z,1028.10
2019-01-02T10:37:45.494Z,1028.09
2019-01-02T10:38:45.520Z,1028.06
2019-01-02T10:39:45.677Z,1028.11
2019-01-02T10:40:45.449Z,1028.08
2019-01-02T10:41:45.433Z,1028.07
2019-01-02T10:42:45.464Z,1028.08
2019-01-02T10:43:45.409Z,1028.10
2019-01-02T10:44:45.403Z,1028.06
2019-01-02T10:45:45.420Z,1028.06
2019-01-02T10:46:45.405Z,1028.05
2019-01-02T10:47:45.386Z,1028.06
2019-01-02T10:48:45.363Z,1028.06
2019-01-02T10:49:45.345Z,1028.10
2019-01-02T10:50:45.341Z,1028.03
2019-01-02T10:51:45.343Z,1028.12
2019-01-02T10:52:46.787Z,1028.10
2019-01-02T10:53:45.325Z,1028.07
2019-01-02T10:54:45.298Z,1028.18
2019-01-02T10:55:45.281Z,1028.15
2019-01-02T10:56:45.291Z,1028.15
2019-01-02T10:57:45.316Z,1028.13
2019-01-02T10:58:45.268Z,1028.17
2019-01-02T10:59:46.359Z,1028.15
2019-01-02T11:00:45.289Z,1028.13
2019-01-02T11:01:45.231Z,1028.11
2019-01-02T11:02:45.231Z,1028.07
2019-01-02T11:03:45.221Z,1028.15
2019-01-02T11:04:45.211Z,1028.13
2019-01-02T11:05:45.174Z,1028.13
2019-01-02T11:06:45.194Z,1028.09
2019-01-02T11:07:45.167Z,1028.12
2019-01-02T11:08:45.179Z,1028.03
2019-01-02T11:09:45.151Z,1028.04
2019-01-02T11:10:45.118Z,1028.11
2019-01-02T11:11:45.111Z,1028.15
2019-01-02T11:12:45.104Z,1028.14
2019-01-02T11:13:45.094Z,1028.08
2019-01-02T11:14:45.097Z,1028.15
2019-01-02T11:15:45.063Z,1028.19
2019-01-02T11:16:45.049Z,1028.14
2019-01-02T11:17:45.064Z,1028.15
2019-01-02T11:18:45.029Z,1028.15
2019-01-02T11:19:45.010Z,1028.19
2019-01-02T11:20:45.020Z,1028.29
2019-01-02T11:21:44.991Z,1028.26
2019-01-02T11:22:45.054Z,1028.28
2019-01-02T11:23:44.973Z,1028.27
2019-01-02T11:24:44.980Z,1028.27
2019-01-02T11:25:44.987Z,1028.29
2019-01-02T11:26:44.957Z,1028.27
2019-01-02T11:27:44.948Z,1028.29
2019-01-02T11:28:44.967Z,1028.32
2019-01-02T11:29:45.062Z,1028.32
2019-01-02T11:30:44.894Z,1028.36
2019-01-02T11:31:44.892Z,1028.34
2019-01-02T11:32:44.875Z,1028.36
2019-01-02T11:33:44.901Z,1028.34
2019-01-02T11:34:44.853Z,1028.32
2019-01-02T11:35:44.836Z,1028.32
2019-01-02T11:36:44.833Z,1028.34
2019-01-02T11:37:44.825Z,1028.30
2019-01-02T11:38:44.840Z,1028.31
2019-01-02T11:39:44.966Z,1028.31
2019-01-02T11:40:44.786Z,1028.32
2019-01-02T11:41:44.771Z,1028.31
2019-01-02T11:42:44.756Z,1028.30
2019-01-02T11:43:44.786Z,1028.25
2019-01-02T11:44:44.754Z,1028.21
2019-01-02T11:45:44.743Z,1028.18
2019-01-02T11:46:44.744Z,1028.19
2019-01-02T11:47:44.701Z,1028.21
2019-01-02T11:48:44.701Z,1028.21
2019-01-02T11:49:44.690Z,1028.20
2019-01-02T11:50:44.690Z,1028.18
2019-01-02T11:51:44.658Z,1028.20
2019-01-02T11:52:44.679Z,1028.18
2019-01-02T11:53:44.695Z,1028.17
2019-01-02T11:54:44.629Z,1028.10
2019-01-02T11:55:44.617Z,1028.13
2019-01-02T11:56:44.659Z,1028.06
2019-01-02T11:57:44.595Z,1028.11
2019-01-02T11:58:49.909Z,1028.11
2019-01-02T11:59:45.572Z,1028.09
2019-01-02T12:00:44.666Z,1028.15
2019-01-02T12:01:44.545Z,1028.14
2019-01-02T12:02:44.535Z,1028.17
2019-01-02T12:03:44.533Z,1028.08
2019-01-02T12:04:44.513Z,1028.13
2019-01-02T12:05:44.507Z,1028.13